Time;durP1;ratioP1;P1;durP2;ratioP2;P2;SDS_P1;SDS_P2;PMS_P1;PMS_P2;Temp;Humidity;BMP_temperature;BMP_pressure;BME280_temperature;BME280_humidity;BME280_pressure;Samples;Min_cycle;Max_cycle;Signal;HPM_P1;HPM_P2
2021/09/06 00:01:09;;;;;;;4.43;3.30;;;;;;;22.73;70.16;98035.94;4988863;28;20313;-64
2021/09/06 00:03:36;;;;;;;5.90;4.33;;;;;;;22.74;70.35;98042.81;4987717;28;20313;-65
2021/09/06 00:06:03;;;;;;;5.23;3.90;;;;;;;22.75;70.26;98038.56;4987370;28;20238;-65
2021/09/06 00:08:30;;;;;;;4.73;3.70;;;;;;;22.26;70.04;97959.19;4987069;28;20227;-65
2021/09/06 00:11:06;;;;;;;5.00;4.13;;;;;;;22.43;70.20;97982.78;4987520;28;20294;-65
2021/09/06 00:13:33;;;;;;;4.67;3.90;;;;;;;22.74;70.33;98036.81;4987188;28;20305;-65
2021/09/06 00:16:00;;;;;;;3.90;3.50;;;;;;;22.73;70.28;98028.25;4986694;28;20230;-65
2021/09/06 00:18:26;;;;;;;4.17;3.67;;;;;;;22.74;70.32;98037.69;4987474;28;20581;-65
2021/09/06 00:20:54;;;;;;;3.70;3.30;;;;;;;22.73;70.37;98033.38;4986462;28;20249;-65
2021/09/06 00:23:20;;;;;;;3.63;3.33;;;;;;;22.66;70.37;98025.44;4987843;28;20309;-65
2021/09/06 00:25:47;;;;;;;3.97;3.63;;;;;;;22.74;70.44;98037.69;4988459;28;20337;-65
2021/09/06 00:28:13;;;;;;;4.23;3.83;;;;;;;22.74;70.43;98036.81;4984033;28;20250;-65
2021/09/06 00:30:40;;;;;;;3.73;3.43;;;;;;;22.74;70.47;98042.81;4988481;28;20230;-65
2021/09/06 00:33:07;;;;;;;3.70;3.40;;;;;;;22.40;70.34;97983.56;4986826;28;20321;-65
2021/09/06 00:35:34;;;;;;;3.97;3.67;;;;;;;22.74;70.43;98045.38;4988006;28;20298;-64
2021/09/06 00:38:00;;;;;;;3.80;3.40;;;;;;;22.74;70.43;98039.38;4986633;28;20717;-65
2021/09/06 00:40:27;;;;;;;3.90;3.57;;;;;;;22.73;70.49;98046.19;4983601;28;20638;-65
2021/09/06 00:42:53;;;;;;;3.90;3.60;;;;;;;22.73;70.55;98041.06;4978447;28;20310;-65
2021/09/06 00:45:20;;;;;;;3.80;3.50;;;;;;;22.73;70.42;98035.06;4981270;28;20202;-65
2021/09/06 00:47:46;;;;;;;3.60;3.30;;;;;;;22.69;70.78;98034.13;4986572;28;20708;-65
2021/09/06 00:50:14;;;;;;;3.63;3.33;;;;;;;22.74;70.61;98036.81;4984697;28;20294;-64
2021/09/06 00:52:47;;;;;;;3.90;3.50;;;;;;;22.56;70.59;98010.59;4986883;28;20775;-65
2021/09/06 00:55:15;;;;;;;4.33;3.93;;;;;;;22.66;70.68;98031.44;4982232;28;20724;-65
2021/09/06 00:57:42;;;;;;;4.10;3.70;;;;;;;22.73;70.71;98043.63;4968207;28;20262;-65
2021/09/06 01:00:09;;;;;;;3.73;3.23;;;;;;;22.11;70.64;97933.09;4985006;28;20298;-65
2021/09/06 01:02:36;;;;;;;3.70;3.40;;;;;;;22.73;70.71;98040.19;4986790;28;20317;-65
2021/09/06 01:05:03;;;;;;;4.30;3.90;;;;;;;22.73;70.75;98033.38;4986538;28;20673;-64
2021/09/06 01:07:30;;;;;;;3.70;3.40;;;;;;;22.73;71.31;98041.06;4985470;28;20250;-65
2021/09/06 01:10:03;;;;;;;3.90;3.47;;;;;;;22.73;70.75;98028.25;4969486;28;20259;-65
2021/09/06 01:12:30;;;;;;;4.20;3.80;;;;;;;22.73;70.95;98035.06;4984765;28;21580;-65
2021/09/06 01:14:56;;;;;;;4.03;3.73;;;;;;;22.73;70.76;98033.38;4983511;28;20234;-65
2021/09/06 01:17:23;;;;;;;3.70;3.40;;;;;;;22.59;70.79;98010.72;4987207;28;20231;-65
2021/09/06 01:19:50;;;;;;;3.77;3.47;;;;;;;22.73;71.05;98037.63;4996280;28;20724;-65
2021/09/06 01:22:18;;;;;;;3.70;3.40;;;;;;;22.73;70.83;98037.63;4989707;28;20333;-65
2021/09/06 01:24:45;;;;;;;4.47;3.77;;;;;;;22.72;70.83;98031.66;4977501;28;20203;-65
2021/09/06 01:27:13;;;;;;;3.70;3.40;;;;;;;22.72;70.96;98038.47;4978867;28;20681;-65
2021/09/06 01:29:40;;;;;;;3.80;3.50;;;;;;;22.66;70.83;98031.44;4993144;28;20267;-65
2021/09/06 01:32:07;;;;;;;4.17;3.77;;;;;;;22.72;70.88;98041.91;4976780;28;20306;-65
2021/09/06 01:34:34;;;;;;;3.97;3.57;;;;;;;22.72;71.41;98036.78;4986036;28;20654;-65
2021/09/06 01:37:00;;;;;;;4.00;3.70;;;;;;;22.72;71.05;98046.16;4986707;28;20321;-65
2021/09/06 01:39:27;;;;;;;3.77;3.47;;;;;;;22.72;71.08;98039.34;4986283;28;20202;-65
2021/09/06 01:41:54;;;;;;;4.00;3.60;;;;;;;22.72;71.10;98035.91;4985365;28;20780;-65
2021/09/06 01:44:21;;;;;;;4.17;3.77;;;;;;;22.72;71.03;98036.78;4986510;28;20226;-65
2021/09/06 01:46:47;;;;;;;3.67;3.37;;;;;;;22.73;71.02;98040.19;4987303;28;20209;-65
2021/09/06 01:49:14;;;;;;;3.77;3.47;;;;;;;22.65;70.97;98023.72;4985125;28;20293;-65
2021/09/06 01:51:40;;;;;;;4.23;3.87;;;;;;;22.72;71.64;98036.78;4986963;28;20604;-64
2021/09/06 01:54:07;;;;;;;3.67;3.37;;;;;;;22.72;71.15;98033.34;4988173;28;20253;-65
2021/09/06 01:56:33;;;;;;;3.93;3.57;;;;;;;22.72;71.17;98029.09;4989105;28;20241;-66
2021/09/06 01:59:00;;;;;;;3.60;3.30;;;;;;;22.72;71.17;98036.78;4986543;28;20238;-66
2021/09/06 02:01:27;;;;;;;3.80;3.50;;;;;;;22.38;71.21;97974.97;4991500;28;20654;-67
2021/09/06 02:03:54;;;;;;;3.63;3.30;;;;;;;22.72;71.06;98033.34;4989116;28;20199;-65
2021/09/06 02:06:20;;;;;;;3.93;3.60;;;;;;;22.72;71.25;98041.03;4986062;28;20207;-65
2021/09/06 02:08:47;;;;;;;3.43;3.13;;;;;;;22.73;71.43;98045.31;4988575;28;20616;-65
2021/09/06 02:11:15;;;;;;;3.80;3.50;;;;;;;22.72;71.26;98044.47;4985359;28;20226;-65
2021/09/06 02:13:41;;;;;;;3.60;3.30;;;;;;;22.72;71.48;98046.16;4984255;28;20292;-65
2021/09/06 02:16:08;;;;;;;3.83;3.30;;;;;;;22.73;71.79;98040.19;4980508;28;20254;-65
2021/09/06 02:18:35;;;;;;;4.03;3.63;;;;;;;22.72;71.17;98044.47;4977122;28;20227;-65
2021/09/06 02:21:01;;;;;;;3.77;3.47;;;;;;;22.72;71.38;98046.16;4982884;28;20326;-66
2021/09/06 02:23:28;;;;;;;4.07;3.70;;;;;;;22.71;71.12;98050.38;4989928;28;20697;-65
2021/09/06 02:25:54;;;;;;;3.63;3.33;;;;;;;22.66;71.67;98036.56;4988398;28;20299;-66
2021/09/06 02:28:21;;;;;;;3.50;3.20;;;;;;;22.72;71.39;98049.59;4980593;28;20238;-65
2021/09/06 02:30:47;;;;;;;4.40;3.77;;;;;;;22.68;71.47;98042.59;4986283;28;20293;-66
2021/09/06 02:33:14;;;;;;;3.80;3.50;;;;;;;22.72;71.26;98051.28;4990233;28;20238;-66
2021/09/06 02:35:41;;;;;;;3.67;3.37;;;;;;;22.72;71.42;98053.84;4988483;28;20226;-66
2021/09/06 02:38:07;;;;;;;3.80;3.50;;;;;;;22.72;71.71;98049.59;4989362;28;20254;-66
2021/09/06 02:40:34;;;;;;;5.20;3.60;;;;;;;22.71;71.44;98050.38;4989645;28;20290;-65
2021/09/06 02:43:00;;;;;;;3.80;3.50;;;;;;;21.91;71.53;97911.09;4990281;28;20309;-65
2021/09/06 02:45:27;;;;;;;3.77;3.47;;;;;;;22.71;71.55;98052.94;4988935;28;20243;-65
2021/09/06 02:47:53;;;;;;;3.60;3.30;;;;;;;22.72;71.58;98056.41;4983574;28;20297;-64
2021/09/06 02:50:20;;;;;;;3.63;3.33;;;;;;;22.71;71.50;98055.50;4988408;28;20294;-65
2021/09/06 02:52:47;;;;;;;3.50;3.20;;;;;;;22.70;71.39;98050.34;4989912;28;20704;-65
2021/09/06 02:55:13;;;;;;;4.33;3.93;;;;;;;22.68;71.50;98045.16;4989606;28;20249;-65
2021/09/06 02:57:40;;;;;;;5.47;3.33;;;;;;;22.60;71.40;98035.50;4992863;28;20251;-65
2021/09/06 03:00:07;;;;;;;5.87;3.90;;;;;;;22.66;71.45;98048.50;4995551;28;20249;-66
2021/09/06 03:02:34;;;;;;;4.10;3.70;;;;;;;22.64;71.55;98051.03;4993199;28;20244;-66
2021/09/06 03:05:01;;;;;;;3.50;3.20;;;;;;;22.62;71.75;98046.69;4991678;28;20238;-65
2021/09/06 03:07:28;;;;;;;3.60;3.30;;;;;;;22.60;71.83;98046.63;4985760;28;20283;-65
2021/09/06 03:09:54;;;;;;;3.50;3.20;;;;;;;22.59;71.96;98046.56;4988106;28;20765;-66
2021/09/06 03:12:21;;;;;;;3.70;3.40;;;;;;;22.58;71.62;98042.25;4984810;28;20257;-65
2021/09/06 03:14:48;;;;;;;3.80;3.50;;;;;;;22.48;71.52;98040.19;4989388;28;20203;-65
2021/09/06 03:17:14;;;;;;;3.97;3.50;;;;;;;22.54;71.94;98040.41;4988688;28;20711;-65
2021/09/06 03:19:41;;;;;;;4.03;3.70;;;;;;;22.53;72.40;98042.09;4986928;28;20610;-66
2021/09/06 03:22:07;;;;;;;3.63;3.33;;;;;;;22.52;72.19;98039.47;4989176;28;20354;-66
2021/09/06 03:24:34;;;;;;;3.70;3.40;;;;;;;22.51;72.43;98042.88;4987801;28;20294;-66
2021/09/06 03:27:01;;;;;;;4.63;3.70;;;;;;;22.50;72.49;98046.22;4989302;28;20326;-66
2021/09/06 03:29:27;;;;;;;3.97;3.33;;;;;;;22.49;72.23;98052.16;4988385;28;20247;-66
2021/09/06 03:31:54;;;;;;;3.53;3.23;;;;;;;22.47;72.55;98046.97;4987324;28;20674;-66
2021/09/06 03:34:21;;;;;;;3.80;3.50;;;;;;;22.21;72.79;98003.41;4987821;28;20240;-65
2021/09/06 03:36:47;;;;;;;4.87;3.70;;;;;;;22.45;72.69;98046.09;4986273;28;20298;-64
2021/09/06 03:39:14;;;;;;;4.30;3.90;;;;;;;22.46;72.78;98044.38;4986327;28;20238;-66
2021/09/06 03:41:40;;;;;;;4.17;3.77;;;;;;;22.47;72.89;98046.13;4987090;28;20310;-65
2021/09/06 03:44:07;;;;;;;3.90;3.60;;;;;;;22.47;72.94;98046.13;4982530;28;20290;-65
2021/09/06 03:46:33;;;;;;;5.60;3.50;;;;;;;22.48;72.92;98046.19;4987199;28;20238;-65
2021/09/06 03:49:00;;;;;;;3.60;3.30;;;;;;;22.48;73.15;98046.19;4988043;28;20211;-65
2021/09/06 03:51:27;;;;;;;4.47;3.43;;;;;;;22.49;72.72;98050.47;4988997;28;20235;-65
2021/09/06 03:53:53;;;;;;;4.10;3.70;;;;;;;21.53;72.69;97880.72;4988760;28;20294;-65
2021/09/06 03:56:20;;;;;;;3.57;3.27;;;;;;;21.56;73.16;97879.13;4987576;28;20321;-65
2021/09/06 03:58:46;;;;;;;3.73;3.43;;;;;;;22.51;72.77;98046.31;4980163;28;20326;-65
2021/09/06 04:01:13;;;;;;;3.70;3.40;;;;;;;22.52;72.68;98048.06;4980628;28;20660;-65
2021/09/06 04:03:41;;;;;;;4.07;3.67;;;;;;;22.53;72.68;98048.94;4984852;28;20207;-65
2021/09/06 04:06:08;;;;;;;3.43;3.13;;;;;;;22.53;72.83;98046.38;4977402;28;20211;-65
2021/09/06 04:08:34;;;;;;;3.80;3.50;;;;;;;22.45;72.94;98043.50;4981353;28;20199;-65
2021/09/06 04:11:01;;;;;;;4.00;3.70;;;;;;;22.53;72.86;98054.91;4987783;28;20261;-65
2021/09/06 04:13:27;;;;;;;3.80;3.50;;;;;;;22.54;72.77;98059.22;4985987;28;20262;-65
2021/09/06 04:15:54;;;;;;;3.43;3.20;;;;;;;22.28;72.85;98019.00;4986124;28;20739;-65
2021/09/06 04:18:21;;;;;;;4.00;3.60;;;;;;;22.55;72.75;98055.84;4986768;28;20677;-65
2021/09/06 04:20:47;;;;;;;4.03;3.63;;;;;;;22.56;72.91;98061.84;4986585;28;20692;-65
2021/09/06 04:23:14;;;;;;;3.67;3.37;;;;;;;22.55;72.56;98060.97;4986454;28;20274;-65
2021/09/06 04:25:41;;;;;;;3.23;2.90;;;;;;;22.57;72.64;98076.38;4988287;28;20716;-65
2021/09/06 04:28:08;;;;;;;3.70;3.37;;;;;;;22.57;72.77;98073.81;4979805;28;20203;-65
2021/09/06 04:30:35;;;;;;;3.43;3.13;;;;;;;22.46;72.69;98058.06;4987551;28;20299;-65
2021/09/06 04:33:02;;;;;;;4.03;3.70;;;;;;;22.59;72.69;98082.44;4986354;28;20300;-65
2021/09/06 04:35:28;;;;;;;3.70;3.40;;;;;;;22.58;72.92;98071.31;4987138;28;20306;-65
2021/09/06 04:37:55;;;;;;;3.43;3.13;;;;;;;22.43;72.46;98051.94;4981617;28;20314;-65
2021/09/06 04:40:21;;;;;;;3.70;3.40;;;;;;;22.58;72.66;98076.44;5000476;28;20249;-64
2021/09/06 04:42:49;;;;;;;3.80;3.50;;;;;;;22.60;72.71;98079.06;4982392;28;20656;-65
2021/09/06 04:45:16;;;;;;;3.70;3.40;;;;;;;22.59;72.68;98069.63;4986027;28;20245;-64
2021/09/06 04:47:43;;;;;;;3.70;3.40;;;;;;;22.60;72.50;98073.94;4982623;28;20749;-65
2021/09/06 04:50:10;;;;;;;3.60;3.30;;;;;;;22.60;72.66;98079.06;4977277;28;20789;-65
2021/09/06 04:52:36;;;;;;;3.90;3.60;;;;;;;22.61;72.68;98085.91;4978898;28;20228;-65
2021/09/06 04:55:03;;;;;;;3.97;3.67;;;;;;;22.60;72.75;98087.63;4987060;28;20241;-65
2021/09/06 04:57:30;;;;;;;3.73;3.33;;;;;;;22.51;72.53;98076.19;4974952;28;20214;-66
2021/09/06 04:59:57;;;;;;;4.70;3.37;;;;;;;22.61;72.77;98096.16;4974336;28;20242;-66
2021/09/06 05:02:23;;;;;;;3.93;3.63;;;;;;;21.47;72.43;97909.47;4974554;28;20677;-66
2021/09/06 05:04:51;;;;;;;4.07;3.77;;;;;;;22.62;72.57;98095.34;4976605;28;20213;-65
2021/09/06 05:07:17;;;;;;;3.87;3.57;;;;;;;22.62;72.65;98100.47;4975769;28;20262;-66
2021/09/06 05:09:44;;;;;;;4.40;4.00;;;;;;;22.62;72.31;98103.88;4975419;28;20282;-66
2021/09/06 05:12:10;;;;;;;4.20;3.80;;;;;;;22.63;72.88;98105.66;4972421;28;20264;-65
2021/09/06 05:14:37;;;;;;;3.87;3.57;;;;;;;22.63;72.52;98104.78;4973870;28;20637;-66
2021/09/06 05:17:03;;;;;;;3.73;3.43;;;;;;;22.64;72.45;98114.19;4972588;28;20655;-65
2021/09/06 05:19:30;;;;;;;4.73;3.87;;;;;;;22.63;72.42;98113.34;4976879;28;20338;-66
2021/09/06 05:21:57;;;;;;;5.53;4.27;;;;;;;22.64;72.05;98121.88;4976000;28;20266;-65
2021/09/06 05:24:23;;;;;;;4.20;3.90;;;;;;;22.64;71.92;98127.00;4983607;28;20285;-66
2021/09/06 05:26:50;;;;;;;4.67;4.17;;;;;;;22.64;71.81;98127.88;4978672;28;20238;-64
2021/09/06 05:29:16;;;;;;;4.27;3.87;;;;;;;22.64;71.87;98119.31;4986935;28;20407;-65
2021/09/06 05:31:43;;;;;;;4.70;4.30;;;;;;;22.65;71.41;98124.50;4985264;28;21016;-66
2021/09/06 05:34:09;;;;;;;4.77;4.30;;;;;;;22.27;71.75;98063.38;5123780;22;20645;-69
2021/09/06 05:36:36;;;;;;;7.87;5.57;;;;;;;22.64;71.70;98127.88;4998873;28;20294;-70
2021/09/06 05:39:02;;;;;;;7.50;6.27;;;;;;;22.66;70.19;98131.38;5016628;28;20259;-69
2021/09/06 05:41:29;;;;;;;9.23;7.17;;;;;;;22.58;69.07;98127.69;5022345;28;20637;-69
2021/09/06 05:43:56;;;;;;;9.97;7.37;;;;;;;22.64;68.04;98127.88;5017878;28;20258;-69
2021/09/06 05:46:22;;;;;;;10.30;7.53;;;;;;;22.63;67.31;98136.41;5020707;28;20706;-71
2021/09/06 05:48:49;;;;;;;15.63;7.13;;;;;;;22.55;67.16;98126.69;5019710;28;20237;-69
2021/09/06 05:51:16;;;;;;;11.10;7.97;;;;;;;22.61;66.94;98139.69;5017638;28;20661;-69
2021/09/06 05:53:42;;;;;;;11.87;7.50;;;;;;;22.59;66.46;98146.50;5017356;28;20261;-70
2021/09/06 05:56:09;;;;;;;13.30;7.37;;;;;;;22.57;66.74;98141.31;5015826;28;20244;-69
2021/09/06 05:58:36;;;;;;;12.47;8.13;;;;;;;22.49;66.67;98136.69;5023176;28;20304;-69
2021/09/06 06:01:02;;;;;;;8.17;7.33;;;;;;;22.54;67.21;98148.88;5013864;28;20268;-70
2021/09/06 06:03:29;;;;;;;8.90;6.77;;;;;;;22.53;67.75;98144.56;5022891;28;20764;-69
2021/09/06 06:05:56;;;;;;;8.50;7.13;;;;;;;22.42;68.27;98138.19;5020142;28;20297;-66
2021/09/06 06:08:22;;;;;;;7.80;6.10;;;;;;;22.46;68.83;98147.69;5019008;28;20205;-69
2021/09/06 06:10:49;;;;;;;9.80;6.43;;;;;;;22.29;69.04;98119.75;5023254;28;20551;-69
2021/09/06 06:13:16;;;;;;;7.73;6.23;;;;;;;22.48;69.65;98158.00;4999415;28;20256;-69
2021/09/06 06:15:42;;;;;;;6.73;5.93;;;;;;;22.44;69.94;98148.47;5021242;28;20686;-70
2021/09/06 06:18:29;;;;;;;6.10;5.40;;;;;;;22.45;70.26;98150.22;5015035;28;20603;-69
2021/09/06 06:20:55;;;;;;;6.40;5.80;;;;;;;22.46;70.36;98155.38;5021315;28;20206;-69
2021/09/06 06:23:22;;;;;;;9.20;6.07;;;;;;;22.37;70.28;98143.94;5015724;28;20221;-69
2021/09/06 06:25:48;;;;;;;7.67;6.00;;;;;;;22.43;70.44;98162.06;5016232;28;20230;-69
2021/09/06 06:28:15;;;;;;;10.07;5.80;;;;;;;22.12;70.32;98111.47;5008833;28;20234;-69
2021/09/06 06:30:42;;;;;;;6.57;5.80;;;;;;;22.30;70.75;98149.66;5018733;28;20206;-70
2021/09/06 06:33:08;;;;;;;6.50;5.90;;;;;;;22.44;70.88;98168.97;5023342;28;20230;-69
2021/09/06 06:35:35;;;;;;;6.33;5.67;;;;;;;22.45;70.93;98174.16;5018884;28;20229;-69
2021/09/06 06:38:02;;;;;;;7.07;5.93;;;;;;;22.45;70.96;98175.81;5017669;28;20360;-68
2021/09/06 06:40:29;;;;;;;6.73;5.70;;;;;;;22.46;71.15;98178.44;5020136;28;20213;-69
2021/09/06 06:42:55;;;;;;;5.73;5.23;;;;;;;22.46;71.35;98167.31;5020138;28;20272;-69
2021/09/06 06:45:22;;;;;;;8.13;5.47;;;;;;;22.40;71.30;98165.41;5026735;28;20729;-69
2021/09/06 06:47:48;;;;;;;6.63;5.60;;;;;;;22.49;71.28;98183.69;5019821;28;20700;-69
2021/09/06 06:50:15;;;;;;;8.60;5.97;;;;;;;22.45;70.79;98179.28;5021308;28;20237;-69
2021/09/06 06:52:42;;;;;;;6.10;5.50;;;;;;;22.51;71.35;98178.63;5022014;28;20221;-69
2021/09/06 06:55:08;;;;;;;6.07;5.47;;;;;;;22.46;71.24;98172.44;5026177;28;20202;-69
2021/09/06 06:57:36;;;;;;;7.83;6.00;;;;;;;22.48;71.46;98181.06;5023297;28;20202;-69
2021/09/06 07:00:03;;;;;;;5.90;5.40;;;;;;;22.50;71.46;98180.31;5015812;28;20296;-68
2021/09/06 07:02:30;;;;;;;6.80;5.53;;;;;;;22.45;71.36;98170.69;5012099;28;20309;-69
2021/09/06 07:04:57;;;;;;;8.23;5.90;;;;;;;22.53;71.68;98187.25;5016817;28;20240;-69
2021/09/06 07:07:24;;;;;;;7.23;5.67;;;;;;;22.35;71.52;98158.41;5013579;28;20413;-71
2021/09/06 07:09:50;;;;;;;6.70;6.10;;;;;;;22.45;71.74;98169.03;5014617;28;20226;-69
2021/09/06 07:12:17;;;;;;;6.53;5.93;;;;;;;22.43;71.78;98167.19;5013583;28;20262;-68
2021/09/06 07:14:44;;;;;;;11.40;7.40;;;;;;;22.54;71.66;98186.44;5020588;28;20237;-69
2021/09/06 07:17:10;;;;;;;17.07;8.53;;;;;;;22.52;71.77;98181.25;5016084;28;20240;-68
2021/09/06 07:19:37;;;;;;;9.27;6.93;;;;;;;22.56;71.84;98195.06;5024985;28;20248;-69
2021/09/06 07:22:03;;;;;;;10.50;7.53;;;;;;;22.56;71.69;98189.94;5024388;28;20670;-70
2021/09/06 07:24:30;;;;;;;16.77;8.20;;;;;;;22.50;71.74;98174.31;5025057;28;20664;-69
2021/09/06 07:26:57;;;;;;;22.57;8.20;;;;;;;22.50;71.97;98179.44;5008727;28;20210;-69
2021/09/06 07:29:23;;;;;;;15.30;8.37;;;;;;;22.58;71.91;98189.16;5019329;28;20235;-69
2021/09/06 07:31:50;;;;;;;23.40;8.63;;;;;;;22.58;72.55;98190.84;5027068;28;20678;-69
2021/09/06 07:34:17;;;;;;;26.80;8.70;;;;;;;22.51;71.69;98179.53;5016786;28;20637;-69
2021/09/06 07:36:43;;;;;;;18.73;8.23;;;;;;;22.58;72.19;98193.41;5022166;28;20236;-69
2021/09/06 07:39:11;;;;;;;25.13;8.40;;;;;;;22.59;72.20;98202.84;5021829;28;20312;-69
2021/09/06 07:41:37;;;;;;;20.17;8.47;;;;;;;22.36;72.11;98155.00;5019684;28;20236;-70
2021/09/06 07:44:04;;;;;;;21.13;8.00;;;;;;;22.57;72.17;98194.22;5025743;28;20260;-69
2021/09/06 07:46:30;;;;;;;26.97;9.07;;;;;;;22.54;72.10;98189.00;5024867;28;20248;-70
2021/09/06 07:48:57;;;;;;;17.10;8.90;;;;;;;22.51;72.30;98187.22;5023234;28;20237;-69
2021/09/06 07:51:24;;;;;;;19.80;8.50;;;;;;;22.53;72.19;98187.25;5024920;28;20256;-70
2021/09/06 07:53:51;;;;;;;24.13;9.57;;;;;;;22.48;72.20;98178.50;5020390;28;20252;-69
2021/09/06 07:56:17;;;;;;;20.27;8.70;;;;;;;22.61;72.27;98204.63;5014183;28;20263;-70
2021/09/06 07:58:44;;;;;;;25.90;9.00;;;;;;;22.60;72.33;98200.34;5026617;28;20261;-69
2021/09/06 08:01:10;;;;;;;23.23;8.17;;;;;;;22.53;72.28;98189.81;5021226;28;20220;-69
2021/09/06 08:03:37;;;;;;;24.23;9.37;;;;;;;22.39;71.89;98162.81;5014320;28;20246;-69
2021/09/06 08:06:04;;;;;;;19.57;7.93;;;;;;;22.62;72.33;98206.38;5018766;28;20206;-70
2021/09/06 08:08:31;;;;;;;20.60;8.23;;;;;;;22.61;72.33;98211.44;5016120;28;20365;-70
2021/09/06 08:10:57;;;;;;;26.03;8.77;;;;;;;22.54;72.51;98204.38;5024572;28;20241;-69
2021/09/06 08:13:24;;;;;;;21.43;8.73;;;;;;;22.55;72.46;98206.97;5019814;28;20237;-74
2021/09/06 08:15:51;;;;;;;28.87;8.40;;;;;;;22.60;72.78;98215.72;5016346;28;20202;-70
2021/09/06 08:18:18;;;;;;;25.67;8.93;;;;;;;22.44;72.62;98180.06;5021005;28;20202;-70
2021/09/06 08:20:48;;;;;;;25.07;8.27;;;;;;;22.59;72.57;98221.63;5008584;28;20205;-70
2021/09/06 08:23:15;;;;;;;21.80;8.60;;;;;;;22.60;72.60;98225.09;5012569;28;20257;-69
2021/09/06 08:25:41;;;;;;;16.67;8.30;;;;;;;22.59;72.16;98231.88;5018148;28;20237;-69
2021/09/06 08:28:08;;;;;;;23.63;9.00;;;;;;;22.16;72.54;98154.28;5021714;28;20935;-69
2021/09/06 08:30:34;;;;;;;23.03;9.10;;;;;;;22.59;72.52;98228.47;5020019;28;20237;-67
2021/09/06 08:33:02;;;;;;;22.80;8.97;;;;;;;22.59;72.85;98234.44;5015245;28;20260;-69
2021/09/06 08:35:29;;;;;;;20.30;8.80;;;;;;;22.59;73.45;98226.75;5023921;28;20316;-69
2021/09/06 08:37:56;;;;;;;19.07;8.70;;;;;;;22.58;73.58;98232.72;5022515;28;20275;-69
2021/09/06 08:40:23;;;;;;;27.43;8.77;;;;;;;22.58;73.58;98225.03;5014360;28;20236;-70
2021/09/06 08:42:49;;;;;;;22.50;8.43;;;;;;;22.58;73.34;98224.16;5018641;28;20226;-70
2021/09/06 08:45:16;;;;;;;22.20;9.00;;;;;;;22.59;73.43;98233.59;5012449;28;20328;-70
2021/09/06 08:47:43;;;;;;;28.53;8.47;;;;;;;22.44;73.97;98215.94;5015773;28;20205;-70
2021/09/06 08:50:10;;;;;;;23.60;8.40;;;;;;;22.48;73.82;98210.13;5025586;28;20229;-69
2021/09/06 08:52:37;;;;;;;29.20;8.73;;;;;;;22.51;74.06;98211.94;5018425;28;20226;-69
2021/09/06 08:55:04;;;;;;;21.60;8.63;;;;;;;22.21;73.93;98169.81;5015931;28;20949;-69
2021/09/06 08:57:32;;;;;;;27.47;9.40;;;;;;;22.59;74.05;98226.75;5003951;28;20205;-70
2021/09/06 08:59:58;;;;;;;33.23;9.70;;;;;;;22.23;73.99;98160.50;5019354;28;20608;-67
2021/09/06 09:02:25;;;;;;;35.30;9.53;;;;;;;22.43;74.52;98203.94;5022577;28;20213;-69
2021/09/06 09:05:03;;;;;;;34.37;9.77;;;;;;;22.53;74.48;98223.13;5027448;28;20690;-69
2021/09/06 09:07:30;;;;;;;33.13;9.87;;;;;;;22.52;74.46;98226.47;5022801;28;20210;-70
2021/09/06 09:09:57;;;;;;;29.87;9.77;;;;;;;22.58;74.34;98231.81;5021764;28;20201;-69
2021/09/06 09:12:25;;;;;;;32.57;9.67;;;;;;;22.61;74.31;98235.38;5021327;28;20236;-68
2021/09/06 09:14:54;;;;;;;29.40;8.87;;;;;;;22.66;74.35;98243.25;5021195;28;20221;-69
2021/09/06 09:17:21;;;;;;;25.03;9.03;;;;;;;22.56;74.41;98221.53;5021511;28;20243;-68
2021/09/06 09:19:47;;;;;;;45.33;9.63;;;;;;;22.63;74.52;98227.75;5025292;28;20606;-69
2021/09/06 09:22:28;;;;;;;44.83;10.57;;;;;;;22.24;74.80;98169.94;5026808;28;20747;-69
2021/09/06 09:24:56;;;;;;;46.77;10.80;;;;;;;22.60;74.66;98219.97;5026715;28;20747;-69
2021/09/06 09:27:32;;;;;;;44.33;9.63;;;;;;;22.50;74.80;98215.28;5010062;28;20232;-69
2021/09/06 09:29:59;;;;;;;31.10;9.73;;;;;;;22.58;74.88;98221.59;5024284;28;20225;-66
2021/09/06 09:32:26;;;;;;;36.50;10.30;;;;;;;22.67;74.89;98234.72;5019056;28;20229;-68
2021/09/06 09:34:52;;;;;;;43.07;10.23;;;;;;;22.52;74.94;98217.13;5009363;28;20330;-69
2021/09/06 09:37:26;;;;;;;35.73;9.83;;;;;;;22.37;75.05;98175.53;5015849;28;20253;-69
2021/09/06 09:39:55;;;;;;;32.73;9.03;;;;;;;22.74;75.00;98240.13;5009254;28;20655;-69
2021/09/06 09:42:21;;;;;;;33.13;10.73;;;;;;;22.44;75.21;98176.66;5019718;28;20270;-68
2021/09/06 09:44:50;;;;;;;42.30;9.80;;;;;;;22.42;74.92;98184.28;4994647;28;20671;-69
2021/09/06 09:47:19;;;;;;;30.63;10.33;;;;;;;22.77;75.04;98241.94;5021133;28;20686;-68
2021/09/06 09:49:48;;;;;;;45.97;9.07;;;;;;;21.63;75.04;98034.56;5025096;28;20217;-69
2021/09/06 09:52:15;;;;;;;33.37;9.27;;;;;;;22.51;75.06;98187.22;5017909;28;20703;-69
2021/09/06 09:54:42;;;;;;;30.60;9.20;;;;;;;22.78;75.06;98236.00;5020406;28;20201;-68
2021/09/06 09:57:08;;;;;;;31.77;10.17;;;;;;;22.43;74.97;98172.31;5022362;28;20245;-69
2021/09/06 09:59:35;;;;;;;36.70;10.30;;;;;;;22.71;74.80;98231.47;5019546;28;20757;-68
2021/09/06 10:02:09;;;;;;;26.00;8.60;;;;;;;22.80;74.95;98235.22;5012791;28;20405;-71
2021/09/06 10:05:03;;;;;;;30.77;9.93;;;;;;;22.80;75.03;98236.94;5018475;28;20201;-69
2021/09/06 10:07:39;;;;;;;29.20;9.77;;;;;;;22.82;75.29;98242.97;5004680;28;20201;-68
2021/09/06 10:10:17;;;;;;;30.60;8.90;;;;;;;22.81;75.35;98236.09;5017134;28;20689;-67
2021/09/06 10:12:45;;;;;;;30.63;9.23;;;;;;;22.81;75.35;98230.97;5024035;28;20228;-68
2021/09/06 10:15:12;;;;;;;34.10;9.43;;;;;;;22.80;75.46;98226.69;5022017;28;20237;-69
2021/09/06 10:17:49;;;;;;;33.93;9.33;;;;;;;22.55;75.08;98185.59;5025101;28;20915;-69
2021/09/06 10:20:21;;;;;;;43.10;9.93;;;;;;;22.80;75.20;98229.25;5023242;28;20217;-69
2021/09/06 10:22:58;;;;;;;32.93;9.40;;;;;;;22.74;75.14;98222.19;5004672;28;20225;-69
2021/09/06 10:25:31;;;;;;;30.07;8.77;;;;;;;22.77;75.13;98221.44;5018088;28;20289;-68
2021/09/06 10:28:02;;;;;;;24.13;8.53;;;;;;;22.73;75.28;98211.88;5021850;28;20233;-68
2021/09/06 10:31:01;;;;;;;31.80;8.87;;;;;;;22.70;75.11;98211.78;5027630;28;20252;-69
2021/09/06 10:33:34;;;;;;;27.40;8.37;;;;;;;22.76;75.42;98211.97;5016316;28;20750;-68
2021/09/06 10:36:07;;;;;;;25.40;8.17;;;;;;;22.75;75.47;98217.94;5026568;28;20288;-68
2021/09/06 10:39:00;;;;;;;33.10;8.57;;;;;;;22.74;75.42;98221.34;5016854;28;20206;-68
2021/09/06 10:41:26;;;;;;;22.57;9.37;;;;;;;22.63;75.33;98197.88;5020293;28;20233;-69
2021/09/06 10:44:00;;;;;;;21.67;8.53;;;;;;;22.39;75.30;98157.69;5023362;28;20256;-68
2021/09/06 10:46:27;;;;;;;33.13;8.73;;;;;;;22.34;75.45;98148.94;5015308;28;20233;-68
2021/09/06 10:48:54;;;;;;;27.40;8.43;;;;;;;22.71;75.32;98213.53;5013145;28;20662;-68
2021/09/06 10:51:25;;;;;;;22.30;7.57;;;;;;;22.71;74.96;98213.53;5018124;28;20917;-69
2021/09/06 10:53:56;;;;;;;19.30;8.47;;;;;;;22.42;74.62;98168.03;5020247;28;20300;-69
2021/09/06 10:56:26;;;;;;;22.50;9.90;;;;;;;22.58;74.99;98196.84;5025985;28;20233;-69
2021/09/06 10:58:54;;;;;;;20.73;8.57;;;;;;;22.61;75.09;98202.06;5011560;28;20252;-68
2021/09/06 11:01:21;;;;;;;21.07;9.27;;;;;;;22.63;75.00;98203.00;5023439;28;20214;-68
2021/09/06 11:03:48;;;;;;;26.70;8.57;;;;;;;22.65;75.22;98203.91;5021224;28;20230;-69
2021/09/06 11:06:15;;;;;;;21.73;8.67;;;;;;;21.68;75.43;98034.72;5018506;28;20214;-68
2021/09/06 11:08:43;;;;;;;26.90;9.07;;;;;;;22.67;75.48;98203.97;5023489;28;20259;-68
2021/09/06 11:11:10;;;;;;;29.63;9.57;;;;;;;22.50;75.48;98171.75;5023433;28;20252;-67
2021/09/06 11:13:47;;;;;;;24.50;9.53;;;;;;;22.44;75.60;98156.16;5017682;28;20249;-68
2021/09/06 11:16:14;;;;;;;24.20;9.50;;;;;;;20.26;75.46;97787.38;5006921;28;20317;-68
2021/09/06 11:18:46;;;;;;;24.73;9.27;;;;;;;22.55;75.82;98173.69;5006195;28;20210;-69
2021/09/06 11:21:13;;;;;;;26.33;9.87;;;;;;;22.64;75.94;98191.06;5022773;28;20321;-68
2021/09/06 11:23:43;;;;;;;31.70;9.73;;;;;;;22.72;76.01;98192.22;5019765;28;20221;-68
2021/09/06 11:26:32;;;;;;;27.07;9.20;;;;;;;22.62;76.13;98183.31;5001406;28;20244;-67
2021/09/06 11:28:59;;;;;;;18.90;9.03;;;;;;;22.63;75.98;98181.63;5008661;28;20205;-70
2021/09/06 11:31:26;;;;;;;20.20;8.80;;;;;;;22.54;76.08;98156.56;5021662;28;20581;-69